Time;durP1;ratioP1;P1;durP2;ratioP2;P2;SDS_P1;SDS_P2;PMS_P1;PMS_P2;Temp;Humidity;BMP_temperature;BMP_pressure;BME280_temperature;BME280_humidity;BME280_pressure;Samples;Min_cycle;Max_cycle;Signal;HPM_P1;HPM_P2
2021/01/04 00:02:03;;;;;;;37.45;17.52;;;;;;;1.14;91.15;95850.63;4965899;28;20066;-45
2021/01/04 00:05:03;;;;;;;36.40;17.52;;;;;;;1.08;89.63;95845.00;4968676;28;20062;-47
2021/01/04 00:07:57;;;;;;;35.25;17.50;;;;;;;1.18;90.75;95846.06;4967961;28;20464;-51
2021/01/04 00:10:32;;;;;;;37.90;17.27;;;;;;;1.21;90.02;95842.44;4961539;28;20070;-50
2021/01/04 00:13:04;;;;;;;36.50;17.00;;;;;;;1.13;90.44;95846.34;4980869;28;20565;-48
2021/01/04 00:15:35;;;;;;;39.25;18.13;;;;;;;1.15;91.21;95841.88;4965936;28;20050;-46
2021/01/04 00:18:37;;;;;;;36.45;16.75;;;;;;;1.08;92.09;95840.63;4967842;28;20849;-50
2021/01/04 00:21:08;;;;;;;35.25;17.77;;;;;;;1.09;91.10;95850.06;4960508;28;20067;-47
2021/01/04 00:23:38;;;;;;;;;;;;;;;1.04;91.23;95844.38;4964900;28;20051;-51
2021/01/04 00:26:09;;;;;;;39.47;17.85;;;;;;;1.03;90.68;95847.06;4967465;28;19985;-47
2021/01/04 00:28:38;;;;;;;39.08;18.17;;;;;;;0.93;91.94;95847.69;4967087;28;20457;-51
2021/01/04 00:31:10;;;;;;;38.58;17.70;;;;;;;0.93;91.59;95849.44;4965086;28;20106;-52
2021/01/04 00:33:41;;;;;;;38.15;18.42;;;;;;;1.02;91.08;95858.38;4966196;28;20047;-48
2021/01/04 00:36:14;;;;;;;39.88;18.17;;;;;;;1.04;91.41;95846.13;4962481;28;20510;-49
2021/01/04 00:38:59;;;;;;;39.25;18.27;;;;;;;1.06;91.32;95849.44;4969289;28;20042;-49
2021/01/04 00:41:32;;;;;;;37.85;17.75;;;;;;;1.05;88.78;95846.03;4965290;28;20046;-47
2021/01/04 00:44:03;;;;;;;36.65;17.52;;;;;;;0.96;87.43;95849.22;4968305;28;20039;-48
2021/01/04 00:46:33;;;;;;;33.58;16.85;;;;;;;0.80;86.85;95853.78;4967896;28;20545;-49
2021/01/04 00:49:06;;;;;;;;;;;;;;;0.71;86.86;95860.38;4960987;28;20043;-46
2021/01/04 00:51:38;;;;;;;33.47;15.10;;;;;;;0.77;85.67;95851.38;4965904;28;19973;-47
2021/01/04 00:54:17;;;;;;;33.58;18.50;;;;;;;0.72;85.74;95862.03;4964803;28;20576;-51
2021/01/04 00:56:48;;;;;;;34.10;16.88;;;;;;;0.82;86.13;95868.28;4968019;28;20125;-46
2021/01/04 00:59:33;;;;;;;34.47;16.98;;;;;;;0.94;85.47;95871.88;4966038;28;20038;-51
2021/01/04 01:02:25;;;;;;;34.70;17.05;;;;;;;1.09;83.99;95868.25;4968491;28;20101;-47
2021/01/04 01:05:00;;;;;;;31.67;16.10;;;;;;;1.02;84.49;95866.16;4968847;28;20045;-44
2021/01/04 01:08:03;;;;;;;34.42;15.73;;;;;;;1.09;83.67;95868.25;4965622;28;20195;-47
2021/01/04 01:10:34;;;;;;;35.58;16.55;;;;;;;1.17;83.57;95867.75;4963789;28;20047;-47
2021/01/04 01:13:14;;;;;;;34.30;17.58;;;;;;;1.18;83.42;95866.81;4962279;28;20043;-49
2021/01/04 01:15:52;;;;;;;38.30;18.77;;;;;;;1.12;85.05;95868.06;4968017;28;20043;-48
2021/01/04 01:18:30;;;;;;;32.00;16.83;;;;;;;0.94;85.86;95875.28;4964916;28;20047;-48
2021/01/04 01:21:02;;;;;;;34.13;17.63;;;;;;;0.85;87.17;95868.09;4965537;28;20117;-47
2021/01/04 01:23:29;;;;;;;38.78;17.83;;;;;;;0.94;87.79;95875.28;4959500;28;20497;-51
2021/01/04 01:26:19;;;;;;;36.30;17.38;;;;;;;0.91;88.69;95872.06;4970574;28;20093;-47
2021/01/04 01:29:09;;;;;;;35.50;17.67;;;;;;;0.88;89.77;95880.06;4961394;28;20042;-48
2021/01/04 01:32:15;;;;;;;35.55;18.15;;;;;;;0.80;89.96;95882.31;4968430;28;20401;-48
2021/01/04 01:34:51;;;;;;;38.47;18.80;;;;;;;0.64;91.20;95878.09;4961539;28;20049;-47
2021/01/04 01:37:40;;;;;;;41.25;20.25;;;;;;;0.57;91.77;95881.19;4965867;28;20420;-47
2021/01/04 01:40:35;;;;;;;37.17;18.93;;;;;;;0.65;91.85;95876.34;4964913;28;20121;-51
2021/01/04 01:43:39;;;;;;;41.15;19.42;;;;;;;0.66;91.54;95878.84;4961631;28;20097;-49
2021/01/04 01:46:09;;;;;;;41.33;18.50;;;;;;;0.58;92.19;95872.47;4960618;28;20050;-48
2021/01/04 01:48:45;;;;;;;41.78;21.25;;;;;;;0.69;90.80;95876.06;4965610;28;20034;-46
2021/01/04 01:51:28;;;;;;;41.63;18.95;;;;;;;0.82;89.70;95870.06;4964944;28;20093;-49
2021/01/04 01:54:05;;;;;;;40.40;19.05;;;;;;;0.85;89.33;95878.47;4964688;28;20046;-52
2021/01/04 01:56:41;;;;;;;40.17;20.00;;;;;;;0.78;88.83;95882.41;4964862;28;20108;-47
2021/01/04 01:59:27;;;;;;;41.85;19.65;;;;;;;0.77;89.23;95880.75;4966732;28;20094;-48
2021/01/04 02:02:02;;;;;;;42.20;19.48;;;;;;;0.79;89.14;95880.63;4967698;28;20049;-49
2021/01/04 02:04:39;;;;;;;41.55;19.35;;;;;;;0.78;89.36;95878.97;4964676;28;20708;-46
2021/01/04 02:07:11;;;;;;;39.63;19.63;;;;;;;0.71;89.97;95884.56;4967171;28;20429;-45
2021/01/04 02:09:43;;;;;;;39.80;19.40;;;;;;;0.64;88.81;95885.06;4966873;28;20097;-45
2021/01/04 02:12:13;;;;;;;33.78;17.85;;;;;;;0.70;87.86;95887.25;4970590;28;20047;-48
2021/01/04 02:14:47;;;;;;;39.92;19.33;;;;;;;0.79;87.08;95884.09;4971528;28;20046;-48
2021/01/04 02:17:37;;;;;;;34.67;17.88;;;;;;;0.76;86.04;95891.22;4968674;28;20134;-48
2021/01/04 02:20:21;;;;;;;36.53;18.95;;;;;;;0.81;85.81;95886.56;4970206;28;20615;-47
2021/01/04 02:23:08;;;;;;;41.85;19.70;;;;;;;0.87;86.12;95886.19;4970006;28;20101;-48
2021/01/04 02:25:38;;;;;;;34.78;18.00;;;;;;;0.86;85.53;95880.16;4966765;28;20129;-46
2021/01/04 02:28:06;;;;;;;;;;;;;;;0.76;86.36;95876.50;4970373;28;20055;-48
2021/01/04 02:30:33;;;;;;;36.22;16.58;;;;;;;0.70;87.17;95872.53;4966946;28;19926;-50
2021/01/04 02:33:01;;;;;;;42.13;20.52;;;;;;;0.71;87.43;95866.41;4968836;28;20050;-49
2021/01/04 02:35:28;;;;;;;36.30;19.17;;;;;;;0.64;88.55;95869.50;4969328;28;20105;-47
2021/01/04 02:37:55;;;;;;;36.47;19.10;;;;;;;0.59;88.88;95868.97;4967315;28;20046;-49
2021/01/04 02:40:22;;;;;;;41.70;20.50;;;;;;;0.59;90.22;95871.56;4969755;28;20142;-48
2021/01/04 02:42:50;;;;;;;39.38;18.88;;;;;;;0.78;89.55;95879.81;4966525;28;20580;-45
2021/01/04 02:45:20;;;;;;;39.72;19.58;;;;;;;0.61;90.07;95880.06;4969064;28;20030;-46
2021/01/04 02:48:06;;;;;;;41.28;19.42;;;;;;;0.62;90.32;95879.97;4963187;28;20051;-47
2021/01/04 02:50:40;;;;;;;42.00;21.15;;;;;;;0.70;88.42;95872.53;4967759;28;20453;-44
2021/01/04 02:53:26;;;;;;;44.97;20.98;;;;;;;0.60;88.03;95876.63;4969611;28;20046;-47
2021/01/04 02:56:03;;;;;;;34.50;17.27;;;;;;;0.55;87.17;95876.13;4964249;28;20043;-46
2021/01/04 02:58:39;;;;;;;;;;;;;;;0.54;86.81;95879.63;4964840;28;20049;-46
2021/01/04 03:01:10;;;;;;;39.90;19.33;;;;;;;0.50;86.75;95877.31;4965232;28;19933;-46
2021/01/04 03:03:38;;;;;;;44.40;20.67;;;;;;;0.52;87.70;95883.22;4967329;28;20047;-46
2021/01/04 03:06:09;;;;;;;38.53;19.90;;;;;;;0.52;88.45;95881.50;4952407;28;20055;-45
2021/01/04 03:08:36;;;;;;;39.58;19.65;;;;;;;0.46;88.66;95879.28;4966922;28;20576;-48
2021/01/04 03:11:05;;;;;;;41.28;20.05;;;;;;;0.53;87.83;95885.75;4972251;28;20041;-48
2021/01/04 03:13:41;;;;;;;41.38;18.33;;;;;;;0.50;88.07;95888.53;4960190;28;20489;-48
2021/01/04 03:16:14;;;;;;;38.20;18.92;;;;;;;0.58;86.27;95885.44;4962974;28;20051;-48
2021/01/04 03:18:46;;;;;;;38.88;20.77;;;;;;;0.68;85.96;95887.34;4964110;28;20035;-46
2021/01/04 03:21:14;;;;;;;42.83;21.20;;;;;;;0.68;85.93;95883.91;4968412;28;20089;-50
2021/01/04 03:23:46;;;;;;;41.88;20.75;;;;;;;0.74;85.83;95885.31;4966644;28;20031;-45
2021/01/04 03:26:18;;;;;;;37.58;18.80;;;;;;;0.67;86.14;95890.88;4970326;28;20093;-47
2021/01/04 03:28:46;;;;;;;39.25;18.65;;;;;;;0.57;86.59;95886.38;4965434;28;20091;-48
2021/01/04 03:31:12;;;;;;;41.72;20.75;;;;;;;0.55;87.39;95889.09;4967009;28;20045;-45
2021/01/04 03:33:40;;;;;;;38.95;19.15;;;;;;;0.51;89.08;95889.34;4963656;28;20039;-47
2021/01/04 03:36:07;;;;;;;37.88;19.90;;;;;;;0.42;86.97;95885.59;4965164;28;20135;-50
2021/01/04 03:38:34;;;;;;;34.65;17.70;;;;;;;0.58;86.00;95885.44;4963775;28;20031;-48
2021/01/04 03:41:01;;;;;;;;;;;;;;;0.71;84.81;95881.97;4970538;28;20066;-47
2021/01/04 03:43:28;;;;;;;37.20;18.92;;;;;;;0.71;84.19;95883.72;4964883;28;19921;-51
2021/01/04 03:45:56;;;;;;;38.17;19.10;;;;;;;0.65;85.15;95884.13;4964914;28;20089;-46
2021/01/04 03:48:23;;;;;;;40.33;19.42;;;;;;;0.65;85.68;95887.56;4968841;28;20122;-45
2021/01/04 03:50:50;;;;;;;38.42;18.92;;;;;;;0.58;86.47;95891.47;4964560;28;20093;-46
2021/01/04 03:53:18;;;;;;;40.60;19.08;;;;;;;0.46;86.12;95890.50;4967464;28;20042;-49
2021/01/04 03:55:44;;;;;;;40.67;22.40;;;;;;;0.35;86.44;95887.75;4960161;28;20998;-46
2021/01/04 03:58:11;;;;;;;35.58;20.60;;;;;;;0.32;85.26;95887.09;4968299;28;20035;-47
2021/01/04 04:00:39;;;;;;;33.92;18.48;;;;;;;0.47;85.10;95886.13;4964094;28;20058;-46
2021/01/04 04:03:07;;;;;;;37.53;18.80;;;;;;;0.37;85.00;95887.63;4964281;28;20039;-47
2021/01/04 04:05:34;;;;;;;39.47;19.35;;;;;;;0.35;85.30;95885.16;4963973;28;20046;-48
2021/01/04 04:08:02;;;;;;;35.53;18.33;;;;;;;0.35;86.18;95881.72;4966936;28;20038;-45
2021/01/04 04:10:30;;;;;;;38.88;18.58;;;;;;;0.37;86.48;95878.09;4966645;28;20082;-45
2021/01/04 04:12:57;;;;;;;35.00;15.95;;;;;;;0.32;86.21;95884.50;4969626;28;20042;-45
2021/01/04 04:15:25;;;;;;;36.97;17.88;;;;;;;0.24;86.77;95882.38;4966483;28;20081;-46
2021/01/04 04:17:52;;;;;;;39.90;18.33;;;;;;;0.40;85.96;95884.84;4957141;28;20030;-45
2021/01/04 04:20:23;;;;;;;39.05;18.90;;;;;;;0.45;85.39;95877.63;4967321;28;20101;-49
2021/01/04 04:22:53;;;;;;;36.33;17.35;;;;;;;0.59;84.21;95884.53;4965925;28;20046;-47
2021/01/04 04:25:21;;;;;;;40.65;18.55;;;;;;;0.67;83.90;95879.69;4966923;28;20161;-47
2021/01/04 04:27:48;;;;;;;40.88;18.60;;;;;;;0.65;83.17;95877.19;4965700;28;20564;-48
2021/01/04 04:30:17;;;;;;;38.95;18.52;;;;;;;0.66;84.34;95881.44;4950515;28;20062;-47
2021/01/04 04:32:44;;;;;;;35.95;18.00;;;;;;;0.47;85.93;95878.34;4967786;28;20129;-51
2021/01/04 04:35:12;;;;;;;37.72;18.98;;;;;;;0.40;88.11;95877.06;4971738;28;20375;-49
2021/01/04 04:37:41;;;;;;;39.78;19.17;;;;;;;0.43;87.37;95874.28;4966057;28;20073;-45
2021/01/04 04:40:09;;;;;;;37.13;17.95;;;;;;;0.36;86.61;95876.44;4967559;28;20107;-51
2021/01/04 04:42:38;;;;;;;38.20;16.45;;;;;;;0.42;85.56;95883.00;4963765;28;20102;-47
2021/01/04 04:45:08;;;;;;;40.38;19.92;;;;;;;0.46;85.84;95881.88;4967522;28;20038;-48
2021/01/04 04:48:15;;;;;;;38.47;17.95;;;;;;;0.41;87.36;95883.91;4964588;28;20584;-46
2021/01/04 04:50:54;;;;;;;39.08;19.15;;;;;;;0.50;86.46;95880.75;4953557;28;20049;-49
2021/01/04 04:53:49;;;;;;;36.75;17.42;;;;;;;0.51;87.48;95884.16;4967522;28;20122;-48
2021/01/04 04:56:31;;;;;;;41.28;19.08;;;;;;;0.52;87.42;95878.03;4965897;28;20038;-48
2021/01/04 04:59:08;;;;;;;35.33;18.30;;;;;;;0.63;86.35;95884.22;4969178;28;20148;-47
2021/01/04 05:01:44;;;;;;;41.88;18.88;;;;;;;0.60;86.10;95876.63;4963388;28;20046;-49
2021/01/04 05:04:33;;;;;;;36.75;17.55;;;;;;;0.52;86.25;95875.44;4963025;28;20062;-47
2021/01/04 05:07:03;;;;;;;40.00;19.38;;;;;;;0.51;86.22;95878.97;4966163;28;20457;-48
2021/01/04 05:09:45;;;;;;;40.80;18.23;;;;;;;0.46;87.31;95877.50;4966174;28;20502;-50
2021/01/04 05:12:24;;;;;;;42.45;21.05;;;;;;;0.42;85.33;95877.81;4952085;28;20043;-46
2021/01/04 05:14:54;;;;;;;41.85;19.63;;;;;;;0.35;86.60;95879.97;4965495;28;20094;-46
2021/01/04 05:17:42;;;;;;;38.43;17.93;;;;;;;0.39;86.18;95884.03;4966833;28;20101;-46
2021/01/04 05:20:12;;;;;;;35.85;18.10;;;;;;;0.45;85.44;95885.41;4967343;28;21223;-47
2021/01/04 05:22:59;;;;;;;39.70;19.35;;;;;;;0.32;86.38;95887.94;4964922;28;20489;-45
2021/01/04 05:25:45;;;;;;;35.75;18.30;;;;;;;0.29;86.84;95889.88;4966026;28;20059;-48
2021/01/04 05:28:44;;;;;;;35.03;16.52;;;;;;;0.30;86.17;95873.41;4963884;28;20055;-49
2021/01/04 05:31:27;;;;;;;36.45;16.65;;;;;;;0.52;85.58;95888.41;4965077;28;20102;-47
2021/01/04 05:34:04;;;;;;;38.67;18.05;;;;;;;0.56;85.24;95885.56;4963137;28;20109;-47
2021/01/04 05:36:41;;;;;;;36.95;18.05;;;;;;;0.45;86.14;95885.41;4962552;28;20423;-49
2021/01/04 05:39:12;;;;;;;35.67;17.50;;;;;;;0.31;86.09;95888.00;4963972;28;20046;-46
2021/01/04 05:41:50;;;;;;;31.83;17.30;;;;;;;0.32;86.30;95889.69;4966862;28;20051;-49
2021/01/04 05:44:38;;;;;;;33.42;16.63;;;;;;;0.40;86.90;95882.25;4967250;28;20034;-47
2021/01/04 05:47:22;;;;;;;36.80;17.88;;;;;;;0.30;87.15;95883.75;4968441;28;20054;-47
2021/01/04 05:49:54;;;;;;;34.20;17.92;;;;;;;0.30;87.07;95881.16;4967913;28;20050;-47
2021/01/04 05:52:22;;;;;;;32.83;16.48;;;;;;;0.30;86.68;95871.63;4972735;28;20034;-46
2021/01/04 05:54:49;;;;;;;34.35;17.38;;;;;;;0.27;87.26;95877.00;4968260;28;20077;-51
2021/01/04 05:57:17;;;;;;;32.22;16.23;;;;;;;0.25;87.23;95878.06;4966861;28;20093;-47
2021/01/04 05:59:46;;;;;;;31.67;16.30;;;;;;;0.20;88.57;95873.97;4966884;28;20045;-50
2021/01/04 06:02:23;;;;;;;31.55;16.50;;;;;;;0.18;86.06;95882.78;4971967;28;20106;-51
2021/01/04 06:04:50;;;;;;;29.23;14.95;;;;;;;0.15;85.44;95881.22;4967025;28;20043;-47
2021/01/04 06:07:18;;;;;;;27.30;14.50;;;;;;;0.17;85.32;95878.50;4970336;28;20450;-47
2021/01/04 06:09:54;;;;;;;27.92;14.93;;;;;;;0.20;84.13;95876.56;4967749;28;20679;-49
2021/01/04 06:12:30;;;;;;;26.42;14.90;;;;;;;0.28;83.97;95876.09;4970463;28;20047;-49
2021/01/04 06:14:58;;;;;;;30.60;15.95;;;;;;;0.24;84.77;95879.78;4968148;28;20026;-49
2021/01/04 06:17:30;;;;;;;30.38;15.23;;;;;;;0.23;85.57;95889.31;4971810;28;20070;-48
2021/01/04 06:20:02;;;;;;;35.50;17.45;;;;;;;0.17;85.69;95881.97;4967803;28;20035;-44
2021/01/04 06:22:31;;;;;;;33.30;15.77;;;;;;;0.22;85.74;95887.66;4970062;28;20090;-49
2021/01/04 06:25:00;;;;;;;34.83;17.80;;;;;;;0.30;86.19;95888.94;4965674;28;20146;-49
2021/01/04 06:27:35;;;;;;;31.17;15.40;;;;;;;0.29;85.77;95887.28;4970672;28;20370;-46
2021/01/04 06:30:15;;;;;;;30.52;16.17;;;;;;;0.36;84.42;95884.22;4963998;28;20065;-45
2021/01/04 06:32:43;;;;;;;26.38;14.45;;;;;;;0.40;82.89;95879.66;4969362;28;20047;-48
2021/01/04 06:35:21;;;;;;;29.48;15.73;;;;;;;0.31;83.43;95883.69;4965237;28;20069;-47
2021/01/04 06:37:48;;;;;;;29.38;14.90;;;;;;;0.27;84.43;95873.59;4969774;28;20126;-44
2021/01/04 06:40:26;;;;;;;26.45;13.77;;;;;;;0.22;85.47;95876.47;4968630;28;20113;-49
2021/01/04 06:42:55;;;;;;;29.63;16.08;;;;;;;0.16;83.93;95879.44;4967235;28;20062;-47
2021/01/04 06:45:27;;;;;;;27.85;15.13;;;;;;;0.22;84.34;95879.06;4967815;28;20097;-49
2021/01/04 06:48:00;;;;;;;26.15;14.13;;;;;;;0.27;84.53;95881.34;4970011;28;20041;-51
2021/01/04 06:50:32;;;;;;;27.83;14.35;;;;;;;0.12;84.74;95886.56;4970538;28;20063;-45
2021/01/04 06:53:18;;;;;;;27.73;15.45;;;;;;;0.21;84.52;95886.00;4968577;28;20070;-44
2021/01/04 06:56:20;;;;;;;28.27;14.82;;;;;;;0.13;84.04;95887.41;4966872;28;20043;-47
2021/01/04 06:59:12;;;;;;;27.88;14.73;;;;;;;0.21;83.88;95888.59;4968634;28;20097;-47
2021/01/04 07:02:07;;;;;;;30.42;15.50;;;;;;;0.24;84.31;95879.78;4966552;28;20097;-49
2021/01/04 07:05:17;;;;;;;27.65;15.13;;;;;;;0.36;83.04;95880.78;4970803;28;20046;-46
2021/01/04 07:08:04;;;;;;;29.15;15.10;;;;;;;0.12;84.49;95880.56;4961101;28;20046;-50
2021/01/04 07:10:45;;;;;;;29.73;16.00;;;;;;;0.18;84.58;95885.38;4968099;28;20061;-48
2021/01/04 07:13:41;;;;;;;;;;;;;;;0.18;84.09;95886.22;4963585;28;20066;-45
2021/01/04 07:16:49;;;;;;;30.45;14.30;;;;;;;0.14;83.61;95902.06;4969269;28;20001;-49
2021/01/04 07:19:38;;;;;;;23.42;11.43;;;;;;;0.02;84.59;95901.03;4953394;28;20386;-45
2021/01/04 07:22:07;;;;;;;31.80;16.27;;;;;;;0.05;84.21;95906.03;4965845;28;20145;-45
2021/01/04 07:24:42;;;;;;;25.73;12.85;;;;;;;0.02;85.75;95908.81;4969426;28;20050;-47
2021/01/04 07:27:36;;;;;;;33.30;15.40;;;;;;;0.19;84.71;95912.97;4966151;28;20035;-45
2021/01/04 07:30:11;;;;;;;28.88;15.00;;;;;;;0.27;83.83;95918.50;4968988;28;20113;-45
2021/01/04 07:32:45;;;;;;;28.55;14.68;;;;;;;0.35;83.73;95918.03;4969910;28;20058;-47
2021/01/04 07:35:17;;;;;;;29.52;14.70;;;;;;;0.18;84.53;95932.88;4970977;28;20047;-47
2021/01/04 07:37:54;;;;;;;32.10;16.25;;;;;;;0.20;84.31;95927.56;4960622;28;20054;-46
2021/01/04 07:40:43;;;;;;;32.88;18.30;;;;;;;0.01;84.31;95919.28;4967174;28;20046;-49
2021/01/04 07:43:29;;;;;;;33.75;16.55;;;;;;;0.16;83.59;95923.50;4967587;28;20370;-46
2021/01/04 07:46:06;;;;;;;34.08;15.70;;;;;;;0.13;83.69;95924.53;4969873;28;20113;-45
2021/01/04 07:48:45;;;;;;;32.17;16.88;;;;;;;0.21;84.09;95924.91;4965592;28;20051;-44
2021/01/04 07:51:34;;;;;;;35.00;17.05;;;;;;;0.22;83.96;95925.72;4969894;28;20054;-45
2021/01/04 07:54:41;;;;;;;35.25;18.08;;;;;;;0.25;83.52;95922.97;4967591;28;20497;-45
2021/01/04 07:57:27;;;;;;;35.30;15.57;;;;;;;0.27;83.69;95920.25;4969702;28;20105;-45
2021/01/04 08:00:31;;;;;;;36.78;17.85;;;;;;;0.36;83.84;95919.69;4962803;28;20105;-48
2021/01/04 08:03:46;;;;;;;31.63;16.27;;;;;;;0.43;83.48;95916.63;4963124;28;20047;-46
2021/01/04 08:06:52;;;;;;;39.40;16.80;;;;;;;0.29;84.26;95923.59;4967886;28;20101;-50
2021/01/04 08:09:28;;;;;;;34.13;17.25;;;;;;;0.43;82.94;95920.97;4958979;28;20039;-44
2021/01/04 08:12:07;;;;;;;43.38;19.08;;;;;;;0.33;83.89;95918.13;4966836;28;20039;-44
2021/01/04 08:14:58;;;;;;;35.80;17.67;;;;;;;0.42;84.45;95917.56;4970080;28;20042;-45
2021/01/04 08:17:30;;;;;;;38.58;18.75;;;;;;;0.40;85.02;95922.00;4972155;28;20129;-49
2021/01/04 08:19:59;;;;;;;43.67;20.33;;;;;;;0.37;85.24;95927.38;4964504;28;20121;-48
2021/01/04 08:22:38;;;;;;;39.75;19.95;;;;;;;0.44;84.41;95923.47;4966418;28;20417;-45
2021/01/04 08:25:09;;;;;;;38.00;15.50;;;;;;;0.29;85.18;95928.78;4965964;28;20582;-46
2021/01/04 08:27:50;;;;;;;42.83;18.00;;;;;;;0.36;84.44;95924.88;4969453;28;20081;-45
2021/01/04 08:30:20;;;;;;;39.92;17.08;;;;;;;0.25;85.39;95922.13;4963665;28;20050;-44
2021/01/04 08:32:53;;;;;;;42.90;19.20;;;;;;;0.47;84.26;95919.84;4963982;28;20058;-44
2021/01/04 08:35:38;;;;;;;42.88;17.27;;;;;;;0.39;84.69;95929.88;4968334;28;20109;-44
2021/01/04 08:38:35;;;;;;;38.15;18.08;;;;;;;0.58;83.63;95927.78;4967387;28;20082;-50
2021/01/04 08:41:07;;;;;;;43.10;20.10;;;;;;;0.58;83.70;95927.78;4967060;28;20437;-46
2021/01/04 08:43:40;;;;;;;41.80;17.05;;;;;;;0.54;83.85;95931.50;4969324;28;20453;-45
2021/01/04 08:46:32;;;;;;;42.95;18.52;;;;;;;0.50;84.21;95932.63;4965247;28;20050;-48
2021/01/04 08:49:02;;;;;;;44.60;21.10;;;;;;;0.55;84.21;95937.50;4966537;28;20035;-49
2021/01/04 08:51:34;;;;;;;46.38;21.63;;;;;;;0.57;84.27;95935.66;4966089;28;20509;-46
2021/01/04 08:54:15;;;;;;;40.72;21.08;;;;;;;0.36;85.76;95940.44;4968085;28;20046;-49
2021/01/04 08:56:44;;;;;;;41.90;17.42;;;;;;;0.37;86.03;95942.91;4966887;28;20117;-47
2021/01/04 08:59:12;;;;;;;44.80;20.80;;;;;;;0.50;85.49;95939.56;4967577;28;20039;-47
2021/01/04 09:01:48;;;;;;;42.28;17.42;;;;;;;0.48;85.96;95937.06;4963457;28;20041;-45
2021/01/04 09:04:28;;;;;;;37.20;17.98;;;;;;;0.38;85.73;95935.97;4965990;28;20038;-49
2021/01/04 09:07:03;;;;;;;;;;;;;;;0.27;86.16;95944.41;4965388;28;20129;-49
2021/01/04 09:09:35;;;;;;;35.40;13.77;;;;;;;0.34;87.03;95940.50;4967374;28;20332;-46
2021/01/04 09:12:08;;;;;;;43.22;18.13;;;;;;;0.50;86.15;95942.16;4965277;28;20046;-46
2021/01/04 09:14:47;;;;;;;36.33;15.82;;;;;;;0.41;84.98;95943.56;4967400;28;20046;-50
2021/01/04 09:17:23;;;;;;;41.70;18.20;;;;;;;0.46;84.36;95944.13;4967291;28;20047;-46
2021/01/04 09:20:01;;;;;;;40.78;19.48;;;;;;;0.40;84.26;95952.28;4968145;28;20512;-45
2021/01/04 09:22:28;;;;;;;45.28;19.65;;;;;;;0.40;84.45;95945.31;4966726;28;20043;-47
2021/01/04 09:24:56;;;;;;;38.40;18.80;;;;;;;0.29;84.69;95950.34;4965804;28;20047;-45
2021/01/04 09:27:47;;;;;;;47.30;22.10;;;;;;;0.24;85.30;95942.00;4947873;28;20057;-48
2021/01/04 09:30:18;;;;;;;;;;;;;;;0.26;85.64;95944.53;4963196;28;20393;-45
2021/01/04 09:33:06;;;;;;;38.28;18.27;;;;;;;0.34;84.86;95940.50;4964670;28;20352;-45
2021/01/04 09:35:33;;;;;;;41.05;19.50;;;;;;;0.53;84.42;95931.59;4935396;28;20671;-46
2021/01/04 09:38:00;;;;;;;42.17;20.90;;;;;;;0.47;83.33;95940.59;4967801;28;20065;-46
2021/01/04 09:40:30;;;;;;;45.38;22.92;;;;;;;0.42;83.17;95940.06;4968088;28;20126;-47
2021/01/04 09:43:04;;;;;;;43.08;18.42;;;;;;;0.43;84.68;95939.94;4959002;28;20062;-49
2021/01/04 09:45:31;;;;;;;44.42;19.92;;;;;;;0.55;84.08;95946.16;4960426;28;20049;-45
2021/01/04 09:48:01;;;;;;;42.50;20.05;;;;;;;0.34;84.56;95944.88;4958797;28;20055;-47
2021/01/04 09:50:31;;;;;;;39.30;17.52;;;;;;;0.33;85.35;95941.44;4963614;28;20457;-44
2021/01/04 09:53:01;;;;;;;42.78;19.88;;;;;;;0.56;85.12;95939.19;4966095;28;20093;-45
2021/01/04 09:55:32;;;;;;;38.60;18.90;;;;;;;0.18;85.45;95935.47;4966948;28;20055;-45
2021/01/04 09:58:01;;;;;;;38.65;19.30;;;;;;;0.02;86.29;95929.53;4964205;28;20038;-48
2021/01/04 10:00:31;;;;;;;41.50;17.23;;;;;;;0.12;86.95;95935.00;4966310;28;20506;-49
2021/01/04 10:03:05;;;;;;;44.25;19.60;;;;;;;0.25;86.24;95927.31;4966128;28;20074;-50
2021/01/04 10:05:36;;;;;;;41.35;18.23;;;;;;;0.11;87.32;95930.75;4962829;28;20042;-45
2021/01/04 10:08:07;;;;;;;46.13;22.65;;;;;;;0.06;86.50;95933.59;4961264;28;20441;-47
2021/01/04 10:10:38;;;;;;;38.05;17.60;;;;;;;-0.11;87.62;95931.22;4963837;28;20051;-46
2021/01/04 10:13:07;;;;;;;34.38;15.45;;;;;;;-0.02;87.18;95928.06;4967772;28;20057;-46
2021/01/04 10:15:35;;;;;;;37.45;16.52;;;;;;;-0.09;87.53;95925.00;4964624;28;20513;-50
2021/01/04 10:18:10;;;;;;;29.65;11.30;;;;;;;0.00;87.56;95934.00;4968980;28;20053;-45
2021/01/04 10:20:42;;;;;;;38.33;18.67;;;;;;;0.25;86.25;95925.56;4957897;28;20129;-49
2021/01/04 10:23:10;;;;;;;40.33;19.38;;;;;;;0.40;85.49;95922.00;4967199;28;20046;-46
2021/01/04 10:25:41;;;;;;;40.40;21.30;;;;;;;0.28;85.85;95925.38;4946407;28;20074;-51
2021/01/04 10:28:09;;;;;;;45.53;23.65;;;;;;;0.26;86.18;95921.19;4967594;28;20042;-46
2021/01/04 10:30:35;;;;;;;24.35;11.18;;;;;;;-0.03;87.18;95909.09;4944947;28;20512;-49
2021/01/04 10:33:05;;;;;;;47.83;24.63;;;;;;;0.05;87.91;95903.44;4969659;28;20046;-45
2021/01/04 10:35:32;;;;;;;45.85;21.60;;;;;;;0.31;86.18;95904.44;4969291;28;20097;-46
2021/01/04 10:38:21;;;;;;;37.05;17.80;;;;;;;0.23;86.35;95904.88;4973397;28;20556;-45
2021/01/04 10:40:50;;;;;;;40.57;18.10;;;;;;;0.23;86.90;95897.09;4968318;28;20569;-44
2021/01/04 10:43:18;;;;;;;37.65;16.83;;;;;;;0.12;87.00;95888.34;4970937;28;20327;-46
2021/01/04 10:46:22;;;;;;;38.55;18.17;;;;;;;0.14;87.89;95884.72;4969339;28;20405;-46
2021/01/04 10:48:59;;;;;;;44.35;20.52;;;;;;;0.26;87.91;95882.31;4971191;28;20081;-50
2021/01/04 10:51:27;;;;;;;46.10;22.08;;;;;;;0.14;87.32;95884.72;4968150;28;20046;-47
2021/01/04 10:53:54;;;;;;;42.35;22.20;;;;;;;0.08;87.75;95879.94;4972610;28;20039;-46
2021/01/04 10:56:35;;;;;;;42.22;19.45;;;;;;;0.14;88.50;95883.91;4970334;28;20037;-51
2021/01/04 10:59:10;;;;;;;51.03;24.98;;;;;;;0.11;88.36;95884.91;4969682;28;20046;-45
2021/01/04 11:01:42;;;;;;;42.65;19.67;;;;;;;0.21;88.05;95870.47;4968524;28;20054;-50
2021/01/04 11:04:11;;;;;;;45.83;23.58;;;;;;;0.15;87.59;95870.00;4971594;28;20050;-49
2021/01/04 11:06:40;;;;;;;44.35;20.15;;;;;;;0.10;88.23;95862.50;4969525;28;20034;-48
2021/01/04 11:09:13;;;;;;;41.97;19.10;;;;;;;0.16;88.43;95867.31;4971533;28;20086;-46
2021/01/04 11:11:42;;;;;;;43.22;22.33;;;;;;;0.35;87.10;95861.81;4967684;28;20485;-48
2021/01/04 11:14:13;;;;;;;41.60;19.48;;;;;;;0.30;86.57;95858.66;4974069;28;20030;-46
2021/01/04 11:16:50;;;;;;;;;;;;;;;0.37;86.34;95852.16;4969292;28;20050;-48
2021/01/04 11:19:26;;;;;;;47.28;21.70;;;;;;;0.31;86.12;95855.16;4971241;28;19977;-46
2021/01/04 11:21:53;;;;;;;41.03;20.13;;;;;;;0.29;85.85;95851.00;4968830;28;20043;-49
2021/01/04 11:24:21;;;;;;;43.63;22.30;;;;;;;0.23;86.14;95842.66;4970063;28;20511;-49
2021/01/04 11:26:48;;;;;;;43.70;23.85;;;;;;;0.06;86.61;95847.25;4967925;28;20059;-49
2021/01/04 11:29:15;;;;;;;40.58;17.52;;;;;;;0.01;88.00;95846.72;4973522;28;20038;-50
2021/01/04 11:31:42;;;;;;;36.05;16.33;;;;;;;0.12;87.11;95847.69;4968247;28;20042;-46
2021/01/04 11:34:09;;;;;;;37.92;18.55;;;;;;;0.16;86.64;95856.09;4970326;28;20042;-48
2021/01/04 11:36:36;;;;;;;39.53;18.27;;;;;;;0.07;87.28;95852.34;4969955;28;20054;-50
2021/01/04 11:39:03;;;;;;;39.78;18.60;;;;;;;0.14;87.61;95852.81;4968621;28;20095;-48
2021/01/04 11:41:30;;;;;;;28.17;14.10;;;;;;;0.01;88.24;95850.13;4969252;28;20757;-50
2021/01/04 11:43:58;;;;;;;38.95;16.70;;;;;;;-0.07;89.00;95850.63;4968974;28;20434;-44
2021/01/04 11:46:25;;;;;;;42.53;22.13;;;;;;;-0.17;89.30;95846.06;4970613;28;20050;-44
2021/01/04 11:48:52;;;;;;;35.47;17.38;;;;;;;0.02;88.32;95849.19;4968447;28;20453;-47
2021/01/04 11:51:20;;;;;;;37.55;17.85;;;;;;;-0.02;88.00;95845.97;4970331;28;20069;-47
2021/01/04 11:53:48;;;;;;;27.75;11.77;;;;;;;0.18;87.11;95841.31;4968262;28;20074;-48
2021/01/04 11:56:15;;;;;;;37.85;17.88;;;;;;;0.18;86.80;95838.72;4972858;28;20042;-45
2021/01/04 11:58:43;;;;;;;40.58;19.52;;;;;;;0.41;86.77;95834.63;4967425;28;20066;-44
2021/01/04 12:01:11;;;;;;;36.55;18.00;;;;;;;0.60;85.42;95829.13;4968952;28;20085;-46
2021/01/04 12:03:38;;;;;;;38.72;18.02;;;;;;;0.52;85.87;95829.63;4960803;28;20046;-45
2021/01/04 12:06:05;;;;;;;40.88;18.95;;;;;;;0.47;85.77;95835.09;4969313;28;20390;-44